createdAt,value
2022-12-11T00:03:33.905Z,99595.77
2022-12-11T00:08:37.033Z,99590.89
2022-12-11T00:13:39.786Z,99583.82
2022-12-11T00:18:43.012Z,99581.70
2022-12-11T00:23:45.784Z,99579.77
2022-12-11T00:28:48.685Z,99581.76
2022-12-11T00:33:51.605Z,99582.71
2022-12-11T00:38:54.801Z,99577.27
2022-12-11T00:43:57.674Z,99588.09
2022-12-11T00:49:00.468Z,99582.52
2022-12-11T00:54:03.628Z,99583.02
2022-12-11T00:59:06.642Z,99584.83
2022-12-11T01:04:09.462Z,99588.43
2022-12-11T01:09:30.989Z,99587.68
2022-12-11T01:14:33.787Z,99582.48
2022-12-11T01:19:38.958Z,99576.91
2022-12-11T01:24:41.717Z,99575.38
2022-12-11T01:29:44.491Z,99566.39
2022-12-11T01:34:47.277Z,99560.32
2022-12-11T01:39:50.036Z,99563.17
2022-12-11T01:45:19.097Z,99564.06
2022-12-11T01:50:21.915Z,99570.72
2022-12-11T01:55:24.854Z,99575.42
2022-12-11T02:00:27.717Z,99566.59
2022-12-11T02:05:30.625Z,99561.53
2022-12-11T02:11:04.570Z,99554.48
2022-12-11T02:16:20.635Z,99554.76
2022-12-11T02:21:29.109Z,99551.36
2022-12-11T02:27:02.118Z,99552.09
2022-12-11T02:32:19.513Z,99544.84
2022-12-11T02:37:28.422Z,99555.60
2022-12-11T02:42:34.322Z,99553.48
2022-12-11T02:47:39.467Z,99545.29
2022-12-11T02:52:44.923Z,99531.90
2022-12-11T02:57:53.287Z,99528.36
2022-12-11T03:02:57.423Z,99531.52
2022-12-11T03:08:00.275Z,99527.67
2022-12-11T03:13:04.728Z,99520.61
2022-12-11T03:18:19.104Z,99521.67
2022-12-11T03:23:38.274Z,99527.36
2022-12-11T03:28:47.042Z,99526.02
2022-12-11T03:33:54.754Z,99516.71
2022-12-11T03:39:15.565Z,99510.30
2022-12-11T03:44:20.918Z,99512.63
2022-12-11T03:49:29.199Z,99507.45
2022-12-11T03:54:35.019Z,99510.80
2022-12-11T03:59:38.142Z,99505.07
2022-12-11T04:04:42.067Z,99499.83
2022-12-11T04:09:44.882Z,99493.84
2022-12-11T04:15:02.898Z,99496.23
2022-12-11T04:20:26.684Z,99497.97
2022-12-11T04:25:29.463Z,99493.05
2022-12-11T04:30:34.279Z,99492.52
2022-12-11T04:35:37.492Z,99493.44
2022-12-11T04:40:40.339Z,99497.08
2022-12-11T04:45:43.138Z,99495.88
2022-12-11T04:50:46.499Z,99496.73
2022-12-11T04:55:49.317Z,99494.52
2022-12-11T05:00:52.494Z,99495.61
2022-12-11T05:05:55.260Z,99493.62
2022-12-11T05:11:00.088Z,99484.38
2022-12-11T05:16:09.281Z,99484.55
2022-12-11T05:21:13.872Z,99486.34
2022-12-11T05:26:20.077Z,99482.44
2022-12-11T05:31:26.376Z,99478.45
2022-12-11T05:36:32.288Z,99477.50
2022-12-11T05:41:35.101Z,99476.45
2022-12-11T05:46:37.924Z,99477.18
2022-12-11T05:51:41.469Z,99481.20
2022-12-11T05:56:44.307Z,99491.79
2022-12-11T06:01:47.353Z,99495.08
2022-12-11T06:06:50.596Z,99490.08
2022-12-11T06:11:53.356Z,99488.12
2022-12-11T06:16:56.103Z,99486.14
2022-12-11T06:21:58.904Z,99480.45
2022-12-11T06:27:01.754Z,99476.52
2022-12-11T06:32:04.714Z,99478.35
2022-12-11T06:37:07.583Z,99483.66
2022-12-11T06:42:10.547Z,99481.83
2022-12-11T06:47:13.299Z,99479.34
2022-12-11T06:52:18.556Z,99478.89
2022-12-11T06:57:22.528Z,99479.83
2022-12-11T07:02:25.341Z,99477.14
2022-12-11T07:07:28.201Z,99480.27
2022-12-11T07:12:31.037Z,99475.52
2022-12-11T07:17:33.826Z,99470.98
2022-12-11T07:22:39.325Z,99468.16
2022-12-11T07:27:46.033Z,99463.30
2022-12-11T07:32:48.901Z,99454.89
2022-12-11T07:37:53.035Z,99447.13
2022-12-11T07:42:56.048Z,99445.84
2022-12-11T07:47:59.327Z,99447.52
2022-12-11T07:53:04.041Z,99454.68
2022-12-11T07:58:07.535Z,99455.81
2022-12-11T08:03:10.949Z,99457.50
2022-12-11T08:08:13.785Z,99462.63
2022-12-11T08:13:16.682Z,99459.52
2022-12-11T08:18:21.241Z,99461.05
2022-12-11T08:23:24.003Z,99454.45
2022-12-11T08:28:27.411Z,99453.71
2022-12-11T08:33:33.089Z,99461.30
2022-12-11T08:38:36.211Z,99451.25
2022-12-11T08:43:39.002Z,99443.37
2022-12-11T08:48:43.249Z,99440.33
2022-12-11T08:53:46.553Z,99434.46
2022-12-11T08:58:50.910Z,99425.17
2022-12-11T09:03:57.754Z,99423.13
2022-12-11T09:09:02.722Z,99420.30
2022-12-11T09:14:08.002Z,99423.40
2022-12-11T09:19:15.153Z,99424.41
2022-12-11T09:24:18.072Z,99418.15
2022-12-11T09:29:23.352Z,99405.70
2022-12-11T09:34:29.405Z,99398.73
2022-12-11T09:39:33.453Z,99382.55
2022-12-11T09:44:46.506Z,99376.48
2022-12-11T09:49:56.973Z,99368.58
2022-12-11T09:55:03.483Z,99360.10
2022-12-11T10:00:15.123Z,99356.77
2022-12-11T10:05:27.812Z,99363.42
2022-12-11T10:11:09.276Z,99350.73
2022-12-11T10:16:23.437Z,99345.11
2022-12-11T10:21:27.543Z,99335.27
2022-12-11T10:26:30.601Z,99332.70
2022-12-11T10:31:42.485Z,99332.27
2022-12-11T10:36:47.299Z,99330.20
2022-12-11T10:41:53.951Z,99319.27
2022-12-11T10:47:06.222Z,99315.15
2022-12-11T10:52:27.496Z,99322.16
2022-12-11T10:57:39.843Z,99315.50
2022-12-11T11:02:46.533Z,99310.10
2022-12-11T11:07:49.536Z,99303.98
2022-12-11T11:13:01.664Z,99289.41
2022-12-11T11:18:25.511Z,99282.16
2022-12-11T11:23:29.057Z,99272.36
2022-12-11T11:28:41.696Z,99272.04
2022-12-11T11:34:05.693Z,99267.02
2022-12-11T11:39:11.425Z,99263.58
2022-12-11T11:44:19.530Z,99267.00
2022-12-11T11:49:51.231Z,99259.52
2022-12-11T11:55:22.034Z,99247.51
2022-12-11T12:00:33.626Z,99248.00
2022-12-11T12:06:12.034Z,99242.77
2022-12-11T12:11:35.943Z,99248.09
2022-12-11T12:17:03.314Z,99240.80
2022-12-11T12:22:43.945Z,99235.73
2022-12-11T12:28:03.404Z,99227.23
2022-12-11T12:33:42.972Z,99225.94
2022-12-11T12:38:59.318Z,99218.21
2022-12-11T12:44:14.446Z,99207.71
2022-12-11T12:49:36.714Z,99205.52
2022-12-11T12:54:42.885Z,99202.38
2022-12-11T12:59:54.471Z,99196.05
2022-12-11T13:05:18.546Z,99187.08
2022-12-11T13:10:43.359Z,99184.18
2022-12-11T13:15:47.173Z,99180.26
2022-12-11T13:20:51.215Z,99177.23
2022-12-11T13:25:59.945Z,99174.56
2022-12-11T13:31:15.388Z,99173.81
2022-12-11T13:36:24.128Z,99169.41
2022-12-11T13:41:30.510Z,99170.09
2022-12-11T13:46:37.562Z,99165.27
2022-12-11T13:51:41.913Z,99160.84
2022-12-11T13:56:55.461Z,99158.66
2022-12-11T14:02:03.308Z,99155.23
2022-12-11T14:07:10.908Z,99152.54
2022-12-11T14:12:20.815Z,99143.08
2022-12-11T14:17:30.190Z,99142.88
2022-12-11T14:22:34.574Z,99131.68
2022-12-11T14:27:37.622Z,99123.89
2022-12-11T14:32:44.769Z,99113.41
2022-12-11T14:37:48.376Z,99112.27
2022-12-11T14:43:00.579Z,99107.06
2022-12-11T14:48:13.564Z,99098.95
2022-12-11T14:53:33.953Z,99092.13
2022-12-11T14:58:51.162Z,99087.76
2022-12-11T15:04:15.639Z,99081.98
2022-12-11T15:09:34.037Z,99075.61
2022-12-11T15:15:02.635Z,99076.78
2022-12-11T15:20:09.417Z,99073.95
2022-12-11T15:25:25.704Z,99073.65
2022-12-11T15:30:36.007Z,99072.95
2022-12-11T15:35:40.803Z,99062.40
2022-12-11T15:40:45.166Z,99057.57
2022-12-11T15:45:48.073Z,99053.70
2022-12-11T15:50:50.932Z,99053.20
2022-12-11T15:55:54.197Z,99050.66
2022-12-11T16:00:58.082Z,99045.56
2022-12-11T16:06:01.077Z,99047.15
2022-12-11T16:11:04.109Z,99046.20
2022-12-11T16:16:09.696Z,99041.77
2022-12-11T16:21:21.615Z,99034.52
2022-12-11T16:26:24.821Z,99032.13
2022-12-11T16:31:27.816Z,99027.41
2022-12-11T16:36:33.105Z,99016.27
2022-12-11T16:41:38.023Z,99009.66
2022-12-11T16:46:42.637Z,99017.00
2022-12-11T16:51:45.561Z,99014.83
2022-12-11T16:56:48.541Z,99018.38
2022-12-11T17:01:53.436Z,99011.88
2022-12-11T17:06:56.783Z,99001.09
2022-12-11T17:11:59.718Z,99002.25
2022-12-11T17:17:02.849Z,99006.16
2022-12-11T17:22:05.721Z,99002.79
2022-12-11T17:27:08.817Z,98995.89
2022-12-11T17:32:11.723Z,99002.34
2022-12-11T17:37:14.627Z,99003.04
2022-12-11T17:42:17.542Z,99002.32
2022-12-11T17:47:22.017Z,98999.30
2022-12-11T17:52:27.350Z,99001.37
2022-12-11T17:57:38.400Z,98995.73
2022-12-11T18:02:42.086Z,98989.09
2022-12-11T18:07:47.090Z,98986.38
2022-12-11T18:12:53.176Z,98986.34
2022-12-11T18:17:59.009Z,98985.56
2022-12-11T18:23:02.568Z,98980.52
2022-12-11T18:28:05.653Z,98976.36
2022-12-11T18:33:09.166Z,98980.77
2022-12-11T18:38:12.716Z,98979.21
2022-12-11T18:43:15.495Z,98973.91
2022-12-11T18:48:18.272Z,98967.34
2022-12-11T18:53:21.192Z,98969.80
2022-12-11T18:58:24.135Z,98963.39
2022-12-11T19:03:26.983Z,98969.02
2022-12-11T19:08:30.269Z,98971.59
2022-12-11T19:13:33.623Z,98967.20
2022-12-11T19:18:36.830Z,98959.35
2022-12-11T19:23:40.388Z,98958.71
2022-12-11T19:28:43.605Z,98955.36
2022-12-11T19:33:47.578Z,98946.59
2022-12-11T19:39:00.935Z,98943.46
2022-12-11T19:44:05.141Z,98942.35
2022-12-11T19:49:08.975Z,98939.52
2022-12-11T19:54:19.163Z,98931.69
2022-12-11T19:59:22.312Z,98938.83
2022-12-11T20:04:25.499Z,98947.86
2022-12-11T20:09:33.439Z,98938.83
2022-12-11T20:14:37.552Z,98938.40
2022-12-11T20:19:41.067Z,98929.75
2022-12-11T20:24:44.613Z,98919.94
2022-12-11T20:29:47.479Z,98918.45
2022-12-11T20:34:55.234Z,98916.61
2022-12-11T20:39:58.629Z,98915.50
2022-12-11T20:45:04.579Z,98907.86
2022-12-11T20:50:09.187Z,98906.37
2022-12-11T20:55:12.186Z,98901.15
2022-12-11T21:00:16.306Z,98898.29
2022-12-11T21:05:19.260Z,98901.56
2022-12-11T21:10:22.722Z,98892.77
2022-12-11T21:15:25.567Z,98890.25
2022-12-11T21:20:28.450Z,98879.90
2022-12-11T21:25:31.267Z,98871.23
2022-12-11T21:30:34.225Z,98871.12
2022-12-11T21:35:36.994Z,98869.98
2022-12-11T21:40:42.584Z,98852.30
2022-12-11T21:46:02.834Z,98849.23
2022-12-11T21:51:18.783Z,98838.17
2022-12-11T21:56:23.356Z,98834.13
2022-12-11T22:01:30.734Z,98823.59
2022-12-11T22:06:34.220Z,98818.15
2022-12-11T22:11:37.093Z,98808.27
2022-12-11T22:16:40.049Z,98808.13
2022-12-11T22:21:42.904Z,98807.80
2022-12-11T22:26:45.710Z,98811.73
2022-12-11T22:31:48.565Z,98807.81
2022-12-11T22:36:51.442Z,98803.56
2022-12-11T22:41:54.332Z,98795.38
2022-12-11T22:46:57.588Z,98792.32
2022-12-11T22:52:00.470Z,98792.84
2022-12-11T22:57:03.562Z,98788.94
2022-12-11T23:02:07.277Z,98789.98
2022-12-11T23:07:10.440Z,98785.03
2022-12-11T23:12:13.234Z,98778.38
2022-12-11T23:17:15.988Z,98774.95
2022-12-11T23:22:18.811Z,98776.31
2022-12-11T23:27:22.221Z,98774.10
2022-12-11T23:32:25.100Z,98768.63
2022-12-11T23:37:27.901Z,98772.73
2022-12-11T23:42:30.716Z,98771.36
2022-12-11T23:47:33.490Z,98770.34
2022-12-11T23:52:36.296Z,98776.32
2022-12-11T23:57:39.085Z,98773.41
